sensor_id;sensor_type;location;lat;lon;timestamp;P1;durP1;ratioP1;P2;durP2;ratioP2
75285;SDS011;63879;46.064;14.532;2023-03-14T07:02:39;3.40;;;0.93;;
75285;SDS011;63879;46.064;14.532;2023-03-14T07:05:05;4.30;;;1.10;;
75285;SDS011;63879;46.064;14.532;2023-03-14T07:07:30;4.82;;;0.63;;
75285;SDS011;63879;46.064;14.532;2023-03-14T07:09:56;1.90;;;0.60;;
75285;SDS011;63879;46.064;14.532;2023-03-14T07:12:21;2.15;;;0.80;;
75285;SDS011;63879;46.064;14.532;2023-03-14T07:14:47;3.28;;;0.60;;
75285;SDS011;63879;46.064;14.532;2023-03-14T07:17:12;2.23;;;0.80;;
75285;SDS011;63879;46.064;14.532;2023-03-14T07:19:37;3.53;;;0.53;;
75285;SDS011;63879;46.064;14.532;2023-03-14T07:22:03;4.32;;;1.38;;
75285;SDS011;63879;46.064;14.532;2023-03-14T07:24:29;6.63;;;0.90;;
75285;SDS011;63879;46.064;14.532;2023-03-14T07:26:55;2.30;;;0.87;;
75285;SDS011;63879;46.064;14.532;2023-03-14T07:29:20;3.83;;;0.60;;
75285;SDS011;63879;46.064;14.532;2023-03-14T07:31:45;2.63;;;0.63;;
75285;SDS011;63879;46.064;14.532;2023-03-14T07:34:11;2.73;;;0.63;;
75285;SDS011;63879;46.064;14.532;2023-03-14T07:36:36;2.43;;;0.57;;
75285;SDS011;63879;46.064;14.532;2023-03-14T07:39:01;3.17;;;0.47;;
75285;SDS011;63879;46.064;14.532;2023-03-14T07:41:27;4.63;;;1.00;;
75285;SDS011;63879;46.064;14.532;2023-03-14T07:43:52;4.20;;;0.77;;
75285;SDS011;63879;46.064;14.532;2023-03-14T07:46:17;2.77;;;0.77;;
75285;SDS011;63879;46.064;14.532;2023-03-14T07:48:43;2.67;;;0.77;;
75285;SDS011;63879;46.064;14.532;2023-03-14T07:51:09;6.60;;;1.40;;
75285;SDS011;63879;46.064;14.532;2023-03-14T07:53:34;5.37;;;0.77;;
75285;SDS011;63879;46.064;14.532;2023-03-14T07:55:59;3.15;;;0.63;;
75285;SDS011;63879;46.064;14.532;2023-03-14T07:58:25;2.33;;;0.70;;
75285;SDS011;63879;46.064;14.532;2023-03-14T08:00:51;3.72;;;1.30;;
75285;SDS011;63879;46.064;14.532;2023-03-14T08:03:17;4.28;;;0.50;;
75285;SDS011;63879;46.064;14.532;2023-03-14T08:05:43;2.38;;;0.55;;
75285;SDS011;63879;46.064;14.532;2023-03-14T08:08:08;4.47;;;0.57;;
75285;SDS011;63879;46.064;14.532;2023-03-14T08:10:34;3.35;;;0.60;;
75285;SDS011;63879;46.064;14.532;2023-03-14T08:12:59;3.42;;;0.55;;
75285;SDS011;63879;46.064;14.532;2023-03-14T08:15:26;1.98;;;0.60;;
75285;SDS011;63879;46.064;14.532;2023-03-14T08:17:52;1.10;;;0.35;;
75285;SDS011;63879;46.064;14.532;2023-03-14T08:20:19;3.28;;;0.65;;
75285;SDS011;63879;46.064;14.532;2023-03-14T08:22:45;2.78;;;0.75;;
75285;SDS011;63879;46.064;14.532;2023-03-14T08:25:10;3.63;;;0.57;;
75285;SDS011;63879;46.064;14.532;2023-03-14T08:27:36;3.20;;;0.55;;
75285;SDS011;63879;46.064;14.532;2023-03-14T08:30:04;4.65;;;0.95;;
75285;SDS011;63879;46.064;14.532;2023-03-14T08:32:36;2.13;;;0.45;;
75285;SDS011;63879;46.064;14.532;2023-03-14T08:35:02;2.92;;;0.50;;
75285;SDS011;63879;46.064;14.532;2023-03-14T08:37:34;3.80;;;0.80;;
75285;SDS011;63879;46.064;14.532;2023-03-14T08:40:00;6.03;;;1.10;;
75285;SDS011;63879;46.064;14.532;2023-03-14T08:42:25;6.20;;;0.60;;
75285;SDS011;63879;46.064;14.532;2023-03-14T08:44:51;3.80;;;0.93;;
75285;SDS011;63879;46.064;14.532;2023-03-14T08:47:17;3.78;;;0.85;;
75285;SDS011;63879;46.064;14.532;2023-03-14T08:49:42;4.75;;;0.50;;
75285;SDS011;63879;46.064;14.532;2023-03-14T08:52:11;3.63;;;0.98;;
75285;SDS011;63879;46.064;14.532;2023-03-14T08:54:36;1.27;;;0.50;;
75285;SDS011;63879;46.064;14.532;2023-03-14T08:57:01;2.10;;;0.40;;
75285;SDS011;63879;46.064;14.532;2023-03-14T08:59:27;3.23;;;0.73;;
75285;SDS011;63879;46.064;14.532;2023-03-14T09:01:52;3.03;;;0.70;;
75285;SDS011;63879;46.064;14.532;2023-03-14T09:04:19;3.47;;;0.52;;
75285;SDS011;63879;46.064;14.532;2023-03-14T09:06:44;3.05;;;0.60;;
75285;SDS011;63879;46.064;14.532;2023-03-14T09:09:10;2.43;;;0.50;;
75285;SDS011;63879;46.064;14.532;2023-03-14T09:11:35;2.23;;;0.60;;
75285;SDS011;63879;46.064;14.532;2023-03-14T09:14:00;2.92;;;0.52;;
75285;SDS011;63879;46.064;14.532;2023-03-14T09:16:26;2.40;;;0.52;;
75285;SDS011;63879;46.064;14.532;2023-03-14T09:18:51;2.67;;;0.57;;
75285;SDS011;63879;46.064;14.532;2023-03-14T09:21:22;3.40;;;0.50;;
75285;SDS011;63879;46.064;14.532;2023-03-14T09:23:51;4.70;;;0.80;;
75285;SDS011;63879;46.064;14.532;2023-03-14T09:26:16;3.85;;;0.73;;
75285;SDS011;63879;46.064;14.532;2023-03-14T09:28:42;3.83;;;0.77;;
75285;SDS011;63879;46.064;14.532;2023-03-14T09:31:07;1.48;;;0.50;;
75285;SDS011;63879;46.064;14.532;2023-03-14T09:33:34;3.58;;;0.70;;
75285;SDS011;63879;46.064;14.532;2023-03-14T09:36:00;4.03;;;1.00;;
75285;SDS011;63879;46.064;14.532;2023-03-14T09:38:26;4.65;;;0.70;;
75285;SDS011;63879;46.064;14.532;2023-03-14T09:40:52;3.13;;;0.77;;
75285;SDS011;63879;46.064;14.532;2023-03-14T09:43:18;4.50;;;0.82;;
75285;SDS011;63879;46.064;14.532;2023-03-14T09:45:44;2.55;;;0.50;;
75285;SDS011;63879;46.064;14.532;2023-03-14T09:48:21;3.40;;;0.60;;
75285;SDS011;63879;46.064;14.532;2023-03-14T09:50:48;3.45;;;0.90;;
75285;SDS011;63879;46.064;14.532;2023-03-14T09:53:18;4.13;;;0.85;;
75285;SDS011;63879;46.064;14.532;2023-03-14T09:55:45;4.13;;;0.90;;
75285;SDS011;63879;46.064;14.532;2023-03-14T09:58:12;2.13;;;0.70;;
75285;SDS011;63879;46.064;14.532;2023-03-14T10:00:38;2.72;;;0.40;;
75285;SDS011;63879;46.064;14.532;2023-03-14T10:03:13;2.47;;;0.50;;
75285;SDS011;63879;46.064;14.532;2023-03-14T10:05:49;3.35;;;0.75;;
75285;SDS011;63879;46.064;14.532;2023-03-14T10:08:15;1.45;;;0.60;;
75285;SDS011;63879;46.064;14.532;2023-03-14T10:10:44;9.40;;;1.10;;
75285;SDS011;63879;46.064;14.532;2023-03-14T10:15:35;1.70;;;0.50;;
75285;SDS011;63879;46.064;14.532;2023-03-14T10:18:03;1.45;;;0.40;;
75285;SDS011;63879;46.064;14.532;2023-03-14T10:25:36;0.93;;;0.50;;
75285;SDS011;63879;46.064;14.532;2023-03-14T10:28:03;1.65;;;0.40;;
75285;SDS011;63879;46.064;14.532;2023-03-14T10:33:22;2.33;;;0.40;;
75285;SDS011;63879;46.064;14.532;2023-03-14T10:36:01;5.20;;;0.77;;
75285;SDS011;63879;46.064;14.532;2023-03-14T10:38:29;1.42;;;0.40;;
75285;SDS011;63879;46.064;14.532;2023-03-14T10:40:56;3.75;;;0.50;;
75285;SDS011;63879;46.064;14.532;2023-03-14T10:43:24;1.90;;;0.52;;
75285;SDS011;63879;46.064;14.532;2023-03-14T10:45:56;2.92;;;0.60;;
75285;SDS011;63879;46.064;14.532;2023-03-14T10:48:33;1.77;;;0.47;;
75285;SDS011;63879;46.064;14.532;2023-03-14T10:51:04;1.88;;;0.43;;
75285;SDS011;63879;46.064;14.532;2023-03-14T10:53:46;3.10;;;0.73;;
75285;SDS011;63879;46.064;14.532;2023-03-14T10:56:17;2.55;;;0.63;;
75285;SDS011;63879;46.064;14.532;2023-03-14T10:58:44;7.45;;;0.77;;
75285;SDS011;63879;46.064;14.532;2023-03-14T11:01:18;2.83;;;0.60;;
75285;SDS011;63879;46.064;14.532;2023-03-14T11:07:14;2.35;;;0.50;;
75285;SDS011;63879;46.064;14.532;2023-03-14T11:09:41;3.58;;;1.00;;
75285;SDS011;63879;46.064;14.532;2023-03-14T11:12:26;2.28;;;0.60;;
75285;SDS011;63879;46.064;14.532;2023-03-14T11:15:27;4.70;;;0.60;;
75285;SDS011;63879;46.064;14.532;2023-03-14T11:18:27;3.50;;;0.65;;
75285;SDS011;63879;46.064;14.532;2023-03-14T11:21:10;2.50;;;0.30;;
75285;SDS011;63879;46.064;14.532;2023-03-14T11:26:53;2.00;;;0.50;;
75285;SDS011;63879;46.064;14.532;2023-03-14T11:31:48;3.35;;;0.60;;
75285;SDS011;63879;46.064;14.532;2023-03-14T11:36:39;3.07;;;0.60;;
75285;SDS011;63879;46.064;14.532;2023-03-14T11:39:17;1.30;;;0.40;;
75285;SDS011;63879;46.064;14.532;2023-03-14T11:41:47;2.25;;;1.02;;
75285;SDS011;63879;46.064;14.532;2023-03-14T11:46:48;4.15;;;0.60;;
75285;SDS011;63879;46.064;14.532;2023-03-14T11:49:38;3.05;;;0.85;;
75285;SDS011;63879;46.064;14.532;2023-03-14T11:52:06;2.05;;;0.85;;
75285;SDS011;63879;46.064;14.532;2023-03-14T11:54:50;3.20;;;0.90;;
75285;SDS011;63879;46.064;14.532;2023-03-14T11:57:18;10.30;;;2.65;;
75285;SDS011;63879;46.064;14.532;2023-03-14T11:59:58;3.55;;;1.10;;
75285;SDS011;63879;46.064;14.532;2023-03-14T12:02:26;11.93;;;2.17;;
75285;SDS011;63879;46.064;14.532;2023-03-14T12:10:40;7.60;;;1.13;;
75285;SDS011;63879;46.064;14.532;2023-03-14T12:13:10;3.60;;;0.90;;
75285;SDS011;63879;46.064;14.532;2023-03-14T12:15:41;5.03;;;0.95;;
75285;SDS011;63879;46.064;14.532;2023-03-14T12:18:26;2.63;;;0.95;;
75285;SDS011;63879;46.064;14.532;2023-03-14T12:20:54;3.35;;;0.73;;
75285;SDS011;63879;46.064;14.532;2023-03-14T12:23:28;3.85;;;1.27;;
75285;SDS011;63879;46.064;14.532;2023-03-14T12:28:37;4.68;;;1.40;;
75285;SDS011;63879;46.064;14.532;2023-03-14T12:41:52;3.50;;;0.98;;
75285;SDS011;63879;46.064;14.532;2023-03-14T12:46:59;4.40;;;1.20;;
75285;SDS011;63879;46.064;14.532;2023-03-14T12:49:31;6.35;;;1.45;;
75285;SDS011;63879;46.064;14.532;2023-03-14T12:52:00;7.80;;;2.42;;
75285;SDS011;63879;46.064;14.532;2023-03-14T12:54:39;4.70;;;1.83;;
75285;SDS011;63879;46.064;14.532;2023-03-14T12:59:57;7.50;;;2.25;;
75285;SDS011;63879;46.064;14.532;2023-03-14T13:02:24;5.90;;;2.35;;
75285;SDS011;63879;46.064;14.532;2023-03-14T13:05:16;4.72;;;2.88;;
75285;SDS011;63879;46.064;14.532;2023-03-14T13:10:24;5.95;;;2.92;;
75285;SDS011;63879;46.064;14.532;2023-03-14T13:15:41;5.13;;;2.53;;
75285;SDS011;63879;46.064;14.532;2023-03-14T13:18:09;6.22;;;2.60;;
75285;SDS011;63879;46.064;14.532;2023-03-14T13:20:36;3.55;;;1.60;;
75285;SDS011;63879;46.064;14.532;2023-03-14T13:25:29;5.33;;;1.67;;
75285;SDS011;63879;46.064;14.532;2023-03-14T13:27:57;3.65;;;1.25;;
75285;SDS011;63879;46.064;14.532;2023-03-14T13:30:27;6.00;;;1.30;;
75285;SDS011;63879;46.064;14.532;2023-03-14T13:32:54;4.55;;;1.42;;
75285;SDS011;63879;46.064;14.532;2023-03-14T13:35:22;4.75;;;1.52;;
75285;SDS011;63879;46.064;14.532;2023-03-14T13:37:54;3.13;;;1.70;;
75285;SDS011;63879;46.064;14.532;2023-03-14T13:40:24;5.30;;;1.55;;
75285;SDS011;63879;46.064;14.532;2023-03-14T13:43:01;7.32;;;1.70;;
75285;SDS011;63879;46.064;14.532;2023-03-14T13:45:29;5.25;;;2.30;;
75285;SDS011;63879;46.064;14.532;2023-03-14T13:47:54;3.92;;;1.90;;
75285;SDS011;63879;46.064;14.532;2023-03-14T13:50:20;8.33;;;2.60;;
75285;SDS011;63879;46.064;14.532;2023-03-14T13:52:46;6.35;;;2.72;;
75285;SDS011;63879;46.064;14.532;2023-03-14T13:55:20;4.07;;;2.42;;
75285;SDS011;63879;46.064;14.532;2023-03-14T13:57:49;11.27;;;3.07;;
75285;SDS011;63879;46.064;14.532;2023-03-14T14:00:21;6.13;;;2.72;;
75285;SDS011;63879;46.064;14.532;2023-03-14T14:02:51;8.68;;;3.63;;
75285;SDS011;63879;46.064;14.532;2023-03-14T14:05:18;6.88;;;3.08;;
75285;SDS011;63879;46.064;14.532;2023-03-14T14:07:44;4.28;;;2.15;;
75285;SDS011;63879;46.064;14.532;2023-03-14T14:10:13;6.55;;;2.03;;
75285;SDS011;63879;46.064;14.532;2023-03-14T14:12:59;6.53;;;3.33;;
75285;SDS011;63879;46.064;14.532;2023-03-14T14:15:26;7.18;;;2.58;;
75285;SDS011;63879;46.064;14.532;2023-03-14T14:18:00;3.38;;;1.63;;
75285;SDS011;63879;46.064;14.532;2023-03-14T14:20:34;7.53;;;2.45;;
75285;SDS011;63879;46.064;14.532;2023-03-14T14:23:19;5.13;;;2.20;;
75285;SDS011;63879;46.064;14.532;2023-03-14T14:25:50;4.82;;;2.13;;
75285;SDS011;63879;46.064;14.532;2023-03-14T14:28:29;5.85;;;1.98;;
75285;SDS011;63879;46.064;14.532;2023-03-14T14:30:59;10.25;;;2.25;;
75285;SDS011;63879;46.064;14.532;2023-03-14T14:33:26;4.75;;;2.05;;
75285;SDS011;63879;46.064;14.532;2023-03-14T14:35:52;5.00;;;2.10;;
75285;SDS011;63879;46.064;14.532;2023-03-14T14:38:20;8.65;;;2.65;;
75285;SDS011;63879;46.064;14.532;2023-03-14T14:40:46;9.07;;;3.33;;
75285;SDS011;63879;46.064;14.532;2023-03-14T14:43:18;7.18;;;2.50;;
75285;SDS011;63879;46.064;14.532;2023-03-14T14:45:48;5.78;;;2.45;;
75285;SDS011;63879;46.064;14.532;2023-03-14T14:48:17;3.90;;;2.17;;
75285;SDS011;63879;46.064;14.532;2023-03-14T14:56:08;4.28;;;2.33;;
75285;SDS011;63879;46.064;14.532;2023-03-14T14:58:55;7.47;;;2.35;;
75285;SDS011;63879;46.064;14.532;2023-03-14T15:01:30;6.13;;;2.30;;
75285;SDS011;63879;46.064;14.532;2023-03-14T15:04:01;5.90;;;2.25;;
75285;SDS011;63879;46.064;14.532;2023-03-14T15:06:28;6.65;;;2.50;;
75285;SDS011;63879;46.064;14.532;2023-03-14T15:08:54;6.72;;;3.03;;
75285;SDS011;63879;46.064;14.532;2023-03-14T15:11:23;4.63;;;2.38;;
75285;SDS011;63879;46.064;14.532;2023-03-14T15:13:53;6.32;;;2.75;;
75285;SDS011;63879;46.064;14.532;2023-03-14T15:16:20;7.15;;;3.00;;
75285;SDS011;63879;46.064;14.532;2023-03-14T15:18:57;5.32;;;2.75;;
75285;SDS011;63879;46.064;14.532;2023-03-14T15:21:24;5.53;;;2.90;;
75285;SDS011;63879;46.064;14.532;2023-03-14T15:23:51;7.15;;;3.33;;
75285;SDS011;63879;46.064;14.532;2023-03-14T15:26:26;8.15;;;3.47;;
75285;SDS011;63879;46.064;14.532;2023-03-14T15:28:52;7.07;;;3.28;;
75285;SDS011;63879;46.064;14.532;2023-03-14T15:31:18;8.65;;;3.28;;
75285;SDS011;63879;46.064;14.532;2023-03-14T15:33:46;6.63;;;3.85;;
75285;SDS011;63879;46.064;14.532;2023-03-14T15:36:31;6.47;;;3.00;;
75285;SDS011;63879;46.064;14.532;2023-03-14T15:38:58;7.57;;;3.38;;
75285;SDS011;63879;46.064;14.532;2023-03-14T15:41:24;7.70;;;3.35;;
75285;SDS011;63879;46.064;14.532;2023-03-14T15:43:50;8.68;;;3.40;;
75285;SDS011;63879;46.064;14.532;2023-03-14T15:46:16;6.82;;;3.88;;
75285;SDS011;63879;46.064;14.532;2023-03-14T15:48:42;6.55;;;3.55;;
75285;SDS011;63879;46.064;14.532;2023-03-14T15:51:11;9.27;;;3.60;;
75285;SDS011;63879;46.064;14.532;2023-03-14T15:53:36;10.93;;;3.95;;
75285;SDS011;63879;46.064;14.532;2023-03-14T15:56:03;8.25;;;4.43;;
75285;SDS011;63879;46.064;14.532;2023-03-14T15:58:32;8.73;;;4.40;;
75285;SDS011;63879;46.064;14.532;2023-03-14T16:00:59;6.20;;;3.67;;
75285;SDS011;63879;46.064;14.532;2023-03-14T16:03:25;8.90;;;5.22;;
75285;SDS011;63879;46.064;14.532;2023-03-14T16:05:50;7.70;;;4.72;;
75285;SDS011;63879;46.064;14.532;2023-03-14T16:08:16;16.73;;;8.35;;
75285;SDS011;63879;46.064;14.532;2023-03-14T16:10:41;12.35;;;8.85;;
75285;SDS011;63879;46.064;14.532;2023-03-14T16:13:07;10.13;;;7.05;;
75285;SDS011;63879;46.064;14.532;2023-03-14T16:15:32;11.38;;;6.95;;
75285;SDS011;63879;46.064;14.532;2023-03-14T16:17:58;11.53;;;7.13;;
75285;SDS011;63879;46.064;14.532;2023-03-14T16:20:23;12.30;;;6.22;;
75285;SDS011;63879;46.064;14.532;2023-03-14T16:22:48;11.73;;;5.78;;
75285;SDS011;63879;46.064;14.532;2023-03-14T16:25:14;9.57;;;4.90;;
75285;SDS011;63879;46.064;14.532;2023-03-14T16:27:40;11.98;;;5.35;;
75285;SDS011;63879;46.064;14.532;2023-03-14T16:30:07;14.00;;;6.35;;
75285;SDS011;63879;46.064;14.532;2023-03-14T16:32:33;12.00;;;5.93;;
75285;SDS011;63879;46.064;14.532;2023-03-14T16:34:58;12.98;;;6.80;;
75285;SDS011;63879;46.064;14.532;2023-03-14T16:37:24;12.38;;;8.05;;
75285;SDS011;63879;46.064;14.532;2023-03-14T16:39:51;14.10;;;7.50;;
75285;SDS011;63879;46.064;14.532;2023-03-14T16:42:17;14.20;;;8.35;;
75285;SDS011;63879;46.064;14.532;2023-03-14T16:44:42;13.88;;;8.18;;
75285;SDS011;63879;46.064;14.532;2023-03-14T16:47:08;16.00;;;8.80;;
75285;SDS011;63879;46.064;14.532;2023-03-14T16:49:33;13.63;;;7.75;;
75285;SDS011;63879;46.064;14.532;2023-03-14T16:51:59;14.55;;;8.32;;
75285;SDS011;63879;46.064;14.532;2023-03-14T16:54:24;15.13;;;9.27;;
75285;SDS011;63879;46.064;14.532;2023-03-14T16:56:50;12.60;;;7.35;;
75285;SDS011;63879;46.064;14.532;2023-03-14T16:59:17;10.10;;;5.57;;
75285;SDS011;63879;46.064;14.532;2023-03-14T17:01:42;11.32;;;6.60;;
75285;SDS011;63879;46.064;14.532;2023-03-14T17:04:08;13.00;;;6.55;;
75285;SDS011;63879;46.064;14.532;2023-03-14T17:06:34;10.98;;;6.00;;
75285;SDS011;63879;46.064;14.532;2023-03-14T17:09:01;10.75;;;4.97;;
75285;SDS011;63879;46.064;14.532;2023-03-14T17:11:30;8.32;;;4.60;;
75285;SDS011;63879;46.064;14.532;2023-03-14T17:13:57;9.10;;;4.10;;
75285;SDS011;63879;46.064;14.532;2023-03-14T17:16:23;8.57;;;3.83;;
75285;SDS011;63879;46.064;14.532;2023-03-14T17:18:48;4.75;;;3.15;;
75285;SDS011;63879;46.064;14.532;2023-03-14T17:21:14;7.28;;;3.60;;
75285;SDS011;63879;46.064;14.532;2023-03-14T17:23:39;6.60;;;3.75;;
75285;SDS011;63879;46.064;14.532;2023-03-14T17:26:05;8.82;;;3.70;;
75285;SDS011;63879;46.064;14.532;2023-03-14T17:28:46;9.35;;;3.65;;
75285;SDS011;63879;46.064;14.532;2023-03-14T17:31:13;7.85;;;3.90;;
75285;SDS011;63879;46.064;14.532;2023-03-14T17:33:40;10.40;;;3.85;;
75285;SDS011;63879;46.064;14.532;2023-03-14T17:36:15;9.68;;;4.22;;
75285;SDS011;63879;46.064;14.532;2023-03-14T17:38:42;10.85;;;3.70;;
75285;SDS011;63879;46.064;14.532;2023-03-14T17:41:08;5.97;;;3.50;;
75285;SDS011;63879;46.064;14.532;2023-03-14T17:43:35;6.60;;;3.55;;
75285;SDS011;63879;46.064;14.532;2023-03-14T17:46:02;8.07;;;4.03;;
75285;SDS011;63879;46.064;14.532;2023-03-14T17:48:33;7.10;;;3.72;;
75285;SDS011;63879;46.064;14.532;2023-03-14T17:53:26;7.60;;;2.57;;
75285;SDS011;63879;46.064;14.532;2023-03-14T17:55:54;4.95;;;2.75;;
75285;SDS011;63879;46.064;14.532;2023-03-14T17:58:19;6.13;;;2.60;;
75285;SDS011;63879;46.064;14.532;2023-03-14T18:00:47;8.32;;;3.03;;
75285;SDS011;63879;46.064;14.532;2023-03-14T18:03:16;7.47;;;4.05;;
75285;SDS011;63879;46.064;14.532;2023-03-14T18:05:42;7.30;;;4.65;;
75285;SDS011;63879;46.064;14.532;2023-03-14T18:08:07;9.37;;;4.43;;
75285;SDS011;63879;46.064;14.532;2023-03-14T18:10:38;7.22;;;4.00;;
75285;SDS011;63879;46.064;14.532;2023-03-14T18:13:04;8.88;;;5.30;;
75285;SDS011;63879;46.064;14.532;2023-03-14T18:15:29;7.07;;;2.67;;
75285;SDS011;63879;46.064;14.532;2023-03-14T18:17:58;4.43;;;2.00;;
75285;SDS011;63879;46.064;14.532;2023-03-14T18:20:26;6.60;;;2.60;;
75285;SDS011;63879;46.064;14.532;2023-03-14T18:22:51;7.50;;;2.72;;
75285;SDS011;63879;46.064;14.532;2023-03-14T18:25:17;4.63;;;2.67;;
75285;SDS011;63879;46.064;14.532;2023-03-14T18:27:42;6.10;;;3.08;;
75285;SDS011;63879;46.064;14.532;2023-03-14T18:30:08;7.70;;;3.83;;
75285;SDS011;63879;46.064;14.532;2023-03-14T18:32:34;7.70;;;3.30;;
75285;SDS011;63879;46.064;14.532;2023-03-14T18:35:06;4.43;;;3.03;;
75285;SDS011;63879;46.064;14.532;2023-03-14T18:37:31;5.38;;;3.28;;
75285;SDS011;63879;46.064;14.532;2023-03-14T18:39:59;8.13;;;3.63;;
75285;SDS011;63879;46.064;14.532;2023-03-14T18:42:28;10.02;;;5.57;;
75285;SDS011;63879;46.064;14.532;2023-03-14T18:44:54;8.55;;;4.55;;
75285;SDS011;63879;46.064;14.532;2023-03-14T18:47:19;9.27;;;5.40;;
75285;SDS011;63879;46.064;14.532;2023-03-14T18:49:49;13.02;;;5.70;;
75285;SDS011;63879;46.064;14.532;2023-03-14T18:52:15;16.55;;;6.90;;
75285;SDS011;63879;46.064;14.532;2023-03-14T18:54:41;10.07;;;6.90;;
75285;SDS011;63879;46.064;14.532;2023-03-14T18:57:06;13.27;;;8.48;;
75285;SDS011;63879;46.064;14.532;2023-03-14T18:59:37;14.25;;;7.80;;
75285;SDS011;63879;46.064;14.532;2023-03-14T19:02:03;13.52;;;7.93;;
75285;SDS011;63879;46.064;14.532;2023-03-14T19:04:28;12.95;;;7.82;;
75285;SDS011;63879;46.064;14.532;2023-03-14T19:06:56;13.98;;;7.57;;
75285;SDS011;63879;46.064;14.532;2023-03-14T19:09:22;16.65;;;9.70;;
75285;SDS011;63879;46.064;14.532;2023-03-14T19:11:47;17.55;;;10.35;;
75285;SDS011;63879;46.064;14.532;2023-03-14T19:14:13;17.23;;;9.02;;
75285;SDS011;63879;46.064;14.532;2023-03-14T19:16:39;14.90;;;6.32;;
75285;SDS011;63879;46.064;14.532;2023-03-14T19:19:05;16.85;;;9.18;;
75285;SDS011;63879;46.064;14.532;2023-03-14T19:21:31;16.80;;;8.43;;
75285;SDS011;63879;46.064;14.532;2023-03-14T19:24:00;14.80;;;9.23;;
75285;SDS011;63879;46.064;14.532;2023-03-14T19:26:31;14.27;;;8.00;;
75285;SDS011;63879;46.064;14.532;2023-03-14T19:29:00;13.77;;;8.25;;
75285;SDS011;63879;46.064;14.532;2023-03-14T19:31:26;13.35;;;8.27;;
75285;SDS011;63879;46.064;14.532;2023-03-14T19:33:53;15.88;;;9.88;;
75285;SDS011;63879;46.064;14.532;2023-03-14T19:36:26;19.33;;;10.50;;
75285;SDS011;63879;46.064;14.532;2023-03-14T19:38:54;14.55;;;9.43;;
75285;SDS011;63879;46.064;14.532;2023-03-14T19:41:20;21.40;;;10.60;;
75285;SDS011;63879;46.064;14.532;2023-03-14T19:43:47;16.35;;;10.73;;
75285;SDS011;63879;46.064;14.532;2023-03-14T19:46:12;18.75;;;11.30;;
75285;SDS011;63879;46.064;14.532;2023-03-14T19:48:38;20.53;;;11.37;;
75285;SDS011;63879;46.064;14.532;2023-03-14T19:51:03;16.25;;;10.80;;
75285;SDS011;63879;46.064;14.532;2023-03-14T19:53:29;22.13;;;11.27;;
75285;SDS011;63879;46.064;14.532;2023-03-14T19:55:55;22.50;;;12.57;;
75285;SDS011;63879;46.064;14.532;2023-03-14T19:58:21;21.50;;;12.48;;
75285;SDS011;63879;46.064;14.532;2023-03-14T20:00:49;21.17;;;13.23;;
75285;SDS011;63879;46.064;14.532;2023-03-14T20:03:15;23.30;;;12.85;;
75285;SDS011;63879;46.064;14.532;2023-03-14T20:05:41;19.83;;;11.15;;
75285;SDS011;63879;46.064;14.532;2023-03-14T20:08:09;25.83;;;13.73;;
75285;SDS011;63879;46.064;14.532;2023-03-14T20:10:35;24.30;;;15.50;;
75285;SDS011;63879;46.064;14.532;2023-03-14T20:13:03;20.33;;;10.90;;
75285;SDS011;63879;46.064;14.532;2023-03-14T20:15:29;25.42;;;14.57;;
75285;SDS011;63879;46.064;14.532;2023-03-14T20:17:54;28.27;;;16.40;;
75285;SDS011;63879;46.064;14.532;2023-03-14T20:20:20;31.95;;;17.98;;
75285;SDS011;63879;46.064;14.532;2023-03-14T20:22:48;29.02;;;16.45;;
75285;SDS011;63879;46.064;14.532;2023-03-14T20:25:15;30.60;;;18.48;;
75285;SDS011;63879;46.064;14.532;2023-03-14T20:27:46;33.13;;;18.95;;
75285;SDS011;63879;46.064;14.532;2023-03-14T20:30:12;39.10;;;20.13;;
75285;SDS011;63879;46.064;14.532;2023-03-14T20:32:42;33.88;;;18.60;;
75285;SDS011;63879;46.064;14.532;2023-03-14T20:35:09;35.15;;;20.10;;
75285;SDS011;63879;46.064;14.532;2023-03-14T20:37:35;25.88;;;16.27;;
75285;SDS011;63879;46.064;14.532;2023-03-14T20:40:02;26.65;;;14.82;;
75285;SDS011;63879;46.064;14.532;2023-03-14T20:42:31;23.90;;;14.00;;
75285;SDS011;63879;46.064;14.532;2023-03-14T20:44:57;22.35;;;13.88;;
75285;SDS011;63879;46.064;14.532;2023-03-14T20:47:22;22.80;;;12.77;;
75285;SDS011;63879;46.064;14.532;2023-03-14T20:49:47;21.90;;;11.97;;
75285;SDS011;63879;46.064;14.532;2023-03-14T20:52:13;21.43;;;13.10;;
75285;SDS011;63879;46.064;14.532;2023-03-14T20:54:39;23.83;;;13.18;;
75285;SDS011;63879;46.064;14.532;2023-03-14T20:57:05;22.65;;;12.48;;
75285;SDS011;63879;46.064;14.532;2023-03-14T20:59:33;23.25;;;13.23;;
75285;SDS011;63879;46.064;14.532;2023-03-14T21:04:24;21.25;;;10.65;;
75285;SDS011;63879;46.064;14.532;2023-03-14T21:06:50;24.77;;;11.98;;
75285;SDS011;63879;46.064;14.532;2023-03-14T21:09:23;20.40;;;10.80;;
75285;SDS011;63879;46.064;14.532;2023-03-14T21:11:52;21.02;;;11.00;;
75285;SDS011;63879;46.064;14.532;2023-03-14T21:14:17;16.23;;;10.13;;
75285;SDS011;63879;46.064;14.532;2023-03-14T21:16:44;19.85;;;11.45;;
75285;SDS011;63879;46.064;14.532;2023-03-14T21:19:12;18.88;;;11.40;;
75285;SDS011;63879;46.064;14.532;2023-03-14T21:21:41;23.42;;;13.70;;
75285;SDS011;63879;46.064;14.532;2023-03-14T21:24:06;21.23;;;11.90;;
75285;SDS011;63879;46.064;14.532;2023-03-14T21:26:32;23.60;;;13.70;;
75285;SDS011;63879;46.064;14.532;2023-03-14T21:28:58;20.90;;;13.13;;
75285;SDS011;63879;46.064;14.532;2023-03-14T21:31:26;22.42;;;12.85;;
75285;SDS011;63879;46.064;14.532;2023-03-14T21:33:52;23.23;;;13.10;;
75285;SDS011;63879;46.064;14.532;2023-03-14T21:36:20;21.13;;;11.93;;
75285;SDS011;63879;46.064;14.532;2023-03-14T21:38:49;22.08;;;13.57;;
75285;SDS011;63879;46.064;14.532;2023-03-14T21:41:14;22.65;;;13.55;;
75285;SDS011;63879;46.064;14.532;2023-03-14T21:43:40;19.38;;;10.60;;
75285;SDS011;63879;46.064;14.532;2023-03-14T21:46:08;20.02;;;9.73;;
75285;SDS011;63879;46.064;14.532;2023-03-14T21:48:33;22.20;;;11.98;;
75285;SDS011;63879;46.064;14.532;2023-03-14T21:51:01;20.87;;;12.20;;
75285;SDS011;63879;46.064;14.532;2023-03-14T21:53:29;21.05;;;11.82;;
75285;SDS011;63879;46.064;14.532;2023-03-14T21:55:55;21.90;;;12.02;;
75285;SDS011;63879;46.064;14.532;2023-03-14T21:58:20;20.23;;;12.65;;
